createdAt,value
2023-05-06T21:36:58.013Z,1.30
2023-05-06T21:39:25.150Z,1.40
2023-05-06T21:41:57.428Z,1.40
2023-05-06T21:47:13.834Z,1.13
2023-05-06T21:49:46.541Z,1.50
2023-05-06T21:52:13.732Z,1.40
2023-05-06T21:54:40.835Z,1.30
2023-05-06T21:57:09.119Z,1.45
2023-05-06T21:59:36.312Z,1.20
2023-05-06T22:02:04.328Z,1.15
2023-05-06T22:04:31.450Z,1.40
2023-05-06T22:06:58.627Z,1.20
2023-05-06T22:09:25.699Z,1.25
2023-05-06T22:11:52.734Z,1.20
2023-05-06T22:14:21.967Z,1.35
2023-05-06T22:16:52.750Z,1.10
2023-05-06T22:19:20.336Z,1.30
2023-05-06T22:21:47.475Z,1.40
2023-05-06T22:24:14.492Z,1.40
2023-05-06T22:26:41.689Z,1.33
2023-05-06T22:29:08.700Z,1.35
2023-05-06T22:31:35.733Z,1.27
2023-05-06T22:34:04.704Z,1.40
2023-05-06T22:36:33.648Z,1.60
2023-05-06T22:39:01.814Z,1.58
2023-05-06T22:41:30.471Z,1.60
2023-05-06T22:43:59.132Z,1.52
2023-05-06T22:46:26.874Z,1.73
2023-05-06T22:48:53.969Z,1.60
2023-05-06T22:51:21.252Z,1.70
2023-05-06T22:53:48.369Z,1.70
2023-05-06T22:56:15.403Z,1.63
2023-05-06T22:58:42.550Z,1.80
2023-05-06T23:01:09.770Z,1.70
2023-05-06T23:03:36.899Z,1.92
2023-05-06T23:06:06.219Z,1.85
2023-05-06T23:08:33.344Z,1.83
2023-05-06T23:11:00.794Z,1.67
2023-05-06T23:13:28.098Z,1.83
2023-05-06T23:15:55.249Z,1.88
2023-05-06T23:18:22.257Z,1.90
2023-05-06T23:20:49.407Z,1.83
2023-05-06T23:23:16.441Z,1.83
2023-05-06T23:25:43.520Z,1.80
2023-05-06T23:28:10.656Z,2.20
2023-05-06T23:30:37.717Z,1.90
2023-05-06T23:33:04.860Z,2.30
2023-05-06T23:35:32.459Z,1.92
2023-05-06T23:37:59.467Z,2.40
2023-05-06T23:40:26.556Z,2.08
2023-05-06T23:42:53.561Z,2.22
2023-05-06T23:45:20.688Z,2.10
2023-05-06T23:47:47.740Z,2.13
2023-05-06T23:50:15.014Z,2.20
2023-05-06T23:52:42.190Z,2.67
2023-05-06T23:55:09.810Z,2.38
2023-05-06T23:57:37.037Z,2.60
